sensor_id;sensor_type;location;lat;lon;timestamp;P1;durP1;ratioP1;P2;durP2;ratioP2
44120;SDS011;29783;52.504;13.478;2022-12-08T00:01:10;11.68;;;4.60;;
44120;SDS011;29783;52.504;13.478;2022-12-08T00:03:38;11.18;;;4.78;;
44120;SDS011;29783;52.504;13.478;2022-12-08T00:06:04;8.52;;;3.78;;
44120;SDS011;29783;52.504;13.478;2022-12-08T00:08:49;9.70;;;4.43;;
44120;SDS011;29783;52.504;13.478;2022-12-08T00:11:34;11.35;;;4.38;;
44120;SDS011;29783;52.504;13.478;2022-12-08T00:14:03;14.40;;;4.68;;
44120;SDS011;29783;52.504;13.478;2022-12-08T00:16:35;8.10;;;4.40;;
44120;SDS011;29783;52.504;13.478;2022-12-08T00:19:01;7.72;;;4.75;;
44120;SDS011;29783;52.504;13.478;2022-12-08T00:21:33;11.38;;;5.47;;
44120;SDS011;29783;52.504;13.478;2022-12-08T00:24:02;12.88;;;4.88;;
44120;SDS011;29783;52.504;13.478;2022-12-08T00:26:28;11.85;;;5.18;;
44120;SDS011;29783;52.504;13.478;2022-12-08T00:28:54;7.22;;;4.30;;
44120;SDS011;29783;52.504;13.478;2022-12-08T00:31:22;11.90;;;5.43;;
44120;SDS011;29783;52.504;13.478;2022-12-08T00:33:48;5.82;;;3.95;;
44120;SDS011;29783;52.504;13.478;2022-12-08T00:36:14;11.50;;;5.18;;
44120;SDS011;29783;52.504;13.478;2022-12-08T00:38:41;10.75;;;4.72;;
44120;SDS011;29783;52.504;13.478;2022-12-08T00:41:13;14.13;;;4.88;;
44120;SDS011;29783;52.504;13.478;2022-12-08T00:43:40;13.50;;;5.43;;
44120;SDS011;29783;52.504;13.478;2022-12-08T00:46:06;15.45;;;4.53;;
44120;SDS011;29783;52.504;13.478;2022-12-08T00:48:33;17.90;;;5.40;;
44120;SDS011;29783;52.504;13.478;2022-12-08T00:50:59;12.93;;;4.85;;
44120;SDS011;29783;52.504;13.478;2022-12-08T00:53:24;12.50;;;5.00;;
44120;SDS011;29783;52.504;13.478;2022-12-08T00:55:50;10.38;;;5.35;;
44120;SDS011;29783;52.504;13.478;2022-12-08T00:58:16;14.02;;;5.65;;
44120;SDS011;29783;52.504;13.478;2022-12-08T01:00:42;10.13;;;5.95;;
44120;SDS011;29783;52.504;13.478;2022-12-08T01:03:09;6.97;;;4.90;;
44120;SDS011;29783;52.504;13.478;2022-12-08T01:05:36;11.85;;;5.32;;
44120;SDS011;29783;52.504;13.478;2022-12-08T01:08:05;10.25;;;5.78;;
44120;SDS011;29783;52.504;13.478;2022-12-08T01:10:36;12.13;;;5.82;;
44120;SDS011;29783;52.504;13.478;2022-12-08T01:13:02;12.85;;;5.60;;
44120;SDS011;29783;52.504;13.478;2022-12-08T01:15:29;8.30;;;5.40;;
44120;SDS011;29783;52.504;13.478;2022-12-08T01:17:55;10.93;;;6.80;;
44120;SDS011;29783;52.504;13.478;2022-12-08T01:20:21;9.40;;;5.93;;
44120;SDS011;29783;52.504;13.478;2022-12-08T01:22:46;13.85;;;6.35;;
44120;SDS011;29783;52.504;13.478;2022-12-08T01:25:12;13.70;;;5.97;;
44120;SDS011;29783;52.504;13.478;2022-12-08T01:27:38;12.63;;;7.00;;
44120;SDS011;29783;52.504;13.478;2022-12-08T01:30:05;11.43;;;6.47;;
44120;SDS011;29783;52.504;13.478;2022-12-08T01:32:31;9.65;;;6.07;;
44120;SDS011;29783;52.504;13.478;2022-12-08T01:34:57;9.23;;;6.35;;
44120;SDS011;29783;52.504;13.478;2022-12-08T01:37:23;12.30;;;5.90;;
44120;SDS011;29783;52.504;13.478;2022-12-08T01:39:49;12.73;;;5.90;;
44120;SDS011;29783;52.504;13.478;2022-12-08T01:42:24;9.13;;;5.53;;
44120;SDS011;29783;52.504;13.478;2022-12-08T01:44:54;11.10;;;5.85;;
44120;SDS011;29783;52.504;13.478;2022-12-08T01:47:23;10.20;;;6.15;;
44120;SDS011;29783;52.504;13.478;2022-12-08T01:49:53;7.40;;;5.50;;
44120;SDS011;29783;52.504;13.478;2022-12-08T01:52:24;11.95;;;7.35;;
44120;SDS011;29783;52.504;13.478;2022-12-08T01:54:52;12.27;;;7.15;;
44120;SDS011;29783;52.504;13.478;2022-12-08T01:57:27;11.50;;;6.95;;
44120;SDS011;29783;52.504;13.478;2022-12-08T02:00:00;12.20;;;6.90;;
44120;SDS011;29783;52.504;13.478;2022-12-08T02:02:31;16.08;;;6.70;;
44120;SDS011;29783;52.504;13.478;2022-12-08T02:05:06;9.35;;;4.95;;
44120;SDS011;29783;52.504;13.478;2022-12-08T02:07:32;11.82;;;5.30;;
44120;SDS011;29783;52.504;13.478;2022-12-08T02:09:59;10.45;;;5.80;;
44120;SDS011;29783;52.504;13.478;2022-12-08T02:12:25;8.32;;;6.15;;
44120;SDS011;29783;52.504;13.478;2022-12-08T02:14:54;11.23;;;5.50;;
44120;SDS011;29783;52.504;13.478;2022-12-08T02:20:31;8.20;;;5.45;;
44120;SDS011;29783;52.504;13.478;2022-12-08T02:28:35;12.35;;;6.00;;
44120;SDS011;29783;52.504;13.478;2022-12-08T02:34:14;9.38;;;6.32;;
44120;SDS011;29783;52.504;13.478;2022-12-08T02:42:07;9.82;;;5.50;;
44120;SDS011;29783;52.504;13.478;2022-12-08T02:45:08;10.57;;;5.45;;
44120;SDS011;29783;52.504;13.478;2022-12-08T02:47:41;8.82;;;5.65;;
44120;SDS011;29783;52.504;13.478;2022-12-08T02:50:08;9.82;;;6.45;;
44120;SDS011;29783;52.504;13.478;2022-12-08T02:52:44;8.85;;;5.82;;
44120;SDS011;29783;52.504;13.478;2022-12-08T02:55:28;9.00;;;5.75;;
44120;SDS011;29783;52.504;13.478;2022-12-08T03:01:24;8.10;;;5.40;;
44120;SDS011;29783;52.504;13.478;2022-12-08T03:06:54;9.07;;;5.53;;
44120;SDS011;29783;52.504;13.478;2022-12-08T03:09:36;6.90;;;5.20;;
44120;SDS011;29783;52.504;13.478;2022-12-08T03:18:51;7.70;;;5.25;;
44120;SDS011;29783;52.504;13.478;2022-12-08T03:32:17;6.80;;;5.00;;
44120;SDS011;29783;52.504;13.478;2022-12-08T03:34:52;8.23;;;5.28;;
44120;SDS011;29783;52.504;13.478;2022-12-08T03:37:20;8.52;;;5.40;;
44120;SDS011;29783;52.504;13.478;2022-12-08T03:39:46;10.80;;;5.35;;
44120;SDS011;29783;52.504;13.478;2022-12-08T03:42:12;7.30;;;5.65;;
44120;SDS011;29783;52.504;13.478;2022-12-08T03:44:38;9.50;;;5.60;;
44120;SDS011;29783;52.504;13.478;2022-12-08T03:47:03;9.75;;;5.38;;
44120;SDS011;29783;52.504;13.478;2022-12-08T03:49:29;7.07;;;5.38;;
44120;SDS011;29783;52.504;13.478;2022-12-08T03:51:55;6.63;;;4.95;;
44120;SDS011;29783;52.504;13.478;2022-12-08T03:54:21;7.32;;;4.93;;
44120;SDS011;29783;52.504;13.478;2022-12-08T03:56:54;7.85;;;5.63;;
44120;SDS011;29783;52.504;13.478;2022-12-08T03:59:20;7.60;;;5.20;;
44120;SDS011;29783;52.504;13.478;2022-12-08T04:01:46;10.98;;;5.78;;
44120;SDS011;29783;52.504;13.478;2022-12-08T04:04:12;8.10;;;6.20;;
44120;SDS011;29783;52.504;13.478;2022-12-08T04:06:38;6.97;;;5.65;;
44120;SDS011;29783;52.504;13.478;2022-12-08T04:09:04;7.88;;;5.40;;
44120;SDS011;29783;52.504;13.478;2022-12-08T04:11:39;10.55;;;7.00;;
44120;SDS011;29783;52.504;13.478;2022-12-08T04:14:15;6.38;;;5.57;;
44120;SDS011;29783;52.504;13.478;2022-12-08T04:19:39;10.00;;;6.53;;
44120;SDS011;29783;52.504;13.478;2022-12-08T04:22:11;12.68;;;7.53;;
44120;SDS011;29783;52.504;13.478;2022-12-08T04:24:43;9.43;;;6.97;;
44120;SDS011;29783;52.504;13.478;2022-12-08T04:27:09;10.85;;;7.93;;
44120;SDS011;29783;52.504;13.478;2022-12-08T04:29:35;10.88;;;7.43;;
44120;SDS011;29783;52.504;13.478;2022-12-08T04:32:04;10.25;;;7.63;;
44120;SDS011;29783;52.504;13.478;2022-12-08T04:34:30;11.20;;;7.05;;
44120;SDS011;29783;52.504;13.478;2022-12-08T04:37:15;9.40;;;7.78;;
44120;SDS011;29783;52.504;13.478;2022-12-08T04:39:41;10.43;;;8.30;;
44120;SDS011;29783;52.504;13.478;2022-12-08T04:42:07;15.95;;;8.77;;
44120;SDS011;29783;52.504;13.478;2022-12-08T04:44:36;13.73;;;9.30;;
44120;SDS011;29783;52.504;13.478;2022-12-08T04:47:02;12.55;;;9.20;;
44120;SDS011;29783;52.504;13.478;2022-12-08T04:49:28;12.88;;;9.10;;
44120;SDS011;29783;52.504;13.478;2022-12-08T04:51:54;15.05;;;9.98;;
44120;SDS011;29783;52.504;13.478;2022-12-08T04:54:20;13.40;;;10.70;;
44120;SDS011;29783;52.504;13.478;2022-12-08T04:56:46;14.65;;;10.95;;
44120;SDS011;29783;52.504;13.478;2022-12-08T04:59:12;17.17;;;10.93;;
44120;SDS011;29783;52.504;13.478;2022-12-08T05:01:38;17.98;;;10.23;;
44120;SDS011;29783;52.504;13.478;2022-12-08T05:04:04;17.75;;;11.10;;
44120;SDS011;29783;52.504;13.478;2022-12-08T05:06:30;13.85;;;9.82;;
44120;SDS011;29783;52.504;13.478;2022-12-08T05:08:59;16.05;;;11.10;;
44120;SDS011;29783;52.504;13.478;2022-12-08T05:11:29;15.98;;;10.35;;
44120;SDS011;29783;52.504;13.478;2022-12-08T05:13:55;16.92;;;9.85;;
44120;SDS011;29783;52.504;13.478;2022-12-08T05:16:21;16.27;;;10.65;;
44120;SDS011;29783;52.504;13.478;2022-12-08T05:18:47;13.77;;;10.48;;
44120;SDS011;29783;52.504;13.478;2022-12-08T05:21:13;15.95;;;10.50;;
44120;SDS011;29783;52.504;13.478;2022-12-08T05:23:39;13.75;;;10.13;;
44120;SDS011;29783;52.504;13.478;2022-12-08T05:26:05;16.63;;;11.02;;
44120;SDS011;29783;52.504;13.478;2022-12-08T05:28:31;16.23;;;8.95;;
44120;SDS011;29783;52.504;13.478;2022-12-08T05:30:57;20.40;;;10.65;;
44120;SDS011;29783;52.504;13.478;2022-12-08T05:33:23;19.33;;;12.88;;
44120;SDS011;29783;52.504;13.478;2022-12-08T05:35:49;17.98;;;12.38;;
44120;SDS011;29783;52.504;13.478;2022-12-08T05:38:15;17.70;;;14.32;;
44120;SDS011;29783;52.504;13.478;2022-12-08T05:40:41;22.92;;;13.52;;
44120;SDS011;29783;52.504;13.478;2022-12-08T05:43:08;18.63;;;11.05;;
44120;SDS011;29783;52.504;13.478;2022-12-08T05:45:40;15.85;;;11.68;;
44120;SDS011;29783;52.504;13.478;2022-12-08T05:51:36;15.80;;;10.70;;
44120;SDS011;29783;52.504;13.478;2022-12-08T05:54:04;18.27;;;12.38;;
44120;SDS011;29783;52.504;13.478;2022-12-08T05:56:33;15.93;;;10.32;;
44120;SDS011;29783;52.504;13.478;2022-12-08T05:58:59;19.35;;;11.30;;
44120;SDS011;29783;52.504;13.478;2022-12-08T06:01:27;20.98;;;11.88;;
44120;SDS011;29783;52.504;13.478;2022-12-08T06:03:56;21.90;;;12.48;;
44120;SDS011;29783;52.504;13.478;2022-12-08T06:06:23;25.10;;;12.75;;
44120;SDS011;29783;52.504;13.478;2022-12-08T06:08:49;18.67;;;13.45;;
44120;SDS011;29783;52.504;13.478;2022-12-08T06:11:16;19.77;;;14.65;;
44120;SDS011;29783;52.504;13.478;2022-12-08T06:13:56;21.35;;;13.73;;
44120;SDS011;29783;52.504;13.478;2022-12-08T06:16:25;22.92;;;14.23;;
44120;SDS011;29783;52.504;13.478;2022-12-08T06:18:52;19.83;;;14.48;;
44120;SDS011;29783;52.504;13.478;2022-12-08T06:21:18;25.48;;;16.65;;
44120;SDS011;29783;52.504;13.478;2022-12-08T06:23:51;30.83;;;16.50;;
44120;SDS011;29783;52.504;13.478;2022-12-08T06:26:22;20.48;;;14.85;;
44120;SDS011;29783;52.504;13.478;2022-12-08T06:28:48;25.88;;;14.57;;
44120;SDS011;29783;52.504;13.478;2022-12-08T06:34:12;21.08;;;14.43;;
44120;SDS011;29783;52.504;13.478;2022-12-08T06:36:38;24.58;;;14.95;;
44120;SDS011;29783;52.504;13.478;2022-12-08T06:39:05;21.27;;;13.05;;
44120;SDS011;29783;52.504;13.478;2022-12-08T06:41:34;25.08;;;14.35;;
44120;SDS011;29783;52.504;13.478;2022-12-08T06:44:23;21.63;;;13.60;;
44120;SDS011;29783;52.504;13.478;2022-12-08T06:46:55;23.15;;;13.55;;
44120;SDS011;29783;52.504;13.478;2022-12-08T06:49:21;17.70;;;12.23;;
44120;SDS011;29783;52.504;13.478;2022-12-08T06:51:47;17.67;;;11.68;;
44120;SDS011;29783;52.504;13.478;2022-12-08T06:54:12;21.23;;;13.30;;
44120;SDS011;29783;52.504;13.478;2022-12-08T06:56:38;47.08;;;25.60;;
44120;SDS011;29783;52.504;13.478;2022-12-08T06:59:06;24.63;;;15.10;;
44120;SDS011;29783;52.504;13.478;2022-12-08T07:02:02;21.23;;;13.40;;
44120;SDS011;29783;52.504;13.478;2022-12-08T07:07:51;19.58;;;10.13;;
44120;SDS011;29783;52.504;13.478;2022-12-08T07:10:27;23.20;;;12.38;;
44120;SDS011;29783;52.504;13.478;2022-12-08T07:12:53;20.38;;;11.10;;
44120;SDS011;29783;52.504;13.478;2022-12-08T07:15:22;19.52;;;10.18;;
44120;SDS011;29783;52.504;13.478;2022-12-08T07:17:48;20.42;;;10.57;;
44120;SDS011;29783;52.504;13.478;2022-12-08T07:20:21;19.83;;;11.07;;
44120;SDS011;29783;52.504;13.478;2022-12-08T07:22:51;17.42;;;11.18;;
44120;SDS011;29783;52.504;13.478;2022-12-08T07:25:20;19.05;;;11.80;;
44120;SDS011;29783;52.504;13.478;2022-12-08T07:27:46;24.95;;;12.00;;
44120;SDS011;29783;52.504;13.478;2022-12-08T07:30:14;20.88;;;11.25;;
44120;SDS011;29783;52.504;13.478;2022-12-08T07:32:40;20.50;;;12.77;;
44120;SDS011;29783;52.504;13.478;2022-12-08T07:35:12;18.42;;;10.50;;
44120;SDS011;29783;52.504;13.478;2022-12-08T07:37:38;15.07;;;10.98;;
44120;SDS011;29783;52.504;13.478;2022-12-08T07:40:19;17.23;;;11.57;;
44120;SDS011;29783;52.504;13.478;2022-12-08T07:45:40;11.23;;;8.25;;
44120;SDS011;29783;52.504;13.478;2022-12-08T07:48:18;15.95;;;11.00;;
44120;SDS011;29783;52.504;13.478;2022-12-08T07:50:54;27.10;;;10.55;;
44120;SDS011;29783;52.504;13.478;2022-12-08T07:53:34;19.45;;;10.77;;
44120;SDS011;29783;52.504;13.478;2022-12-08T07:56:06;27.98;;;10.65;;
44120;SDS011;29783;52.504;13.478;2022-12-08T07:58:38;18.98;;;7.85;;
44120;SDS011;29783;52.504;13.478;2022-12-08T08:01:32;22.70;;;10.63;;
44120;SDS011;29783;52.504;13.478;2022-12-08T08:04:15;23.80;;;8.98;;
44120;SDS011;29783;52.504;13.478;2022-12-08T08:07:06;22.60;;;11.25;;
44120;SDS011;29783;52.504;13.478;2022-12-08T08:09:50;16.95;;;9.95;;
44120;SDS011;29783;52.504;13.478;2022-12-08T08:12:17;15.32;;;10.05;;
44120;SDS011;29783;52.504;13.478;2022-12-08T08:14:57;20.70;;;9.95;;
44120;SDS011;29783;52.504;13.478;2022-12-08T08:17:23;19.20;;;10.02;;
44120;SDS011;29783;52.504;13.478;2022-12-08T08:22:57;17.15;;;10.18;;
44120;SDS011;29783;52.504;13.478;2022-12-08T08:25:41;22.00;;;9.32;;
44120;SDS011;29783;52.504;13.478;2022-12-08T08:28:20;18.42;;;9.93;;
44120;SDS011;29783;52.504;13.478;2022-12-08T08:34:08;18.67;;;10.50;;
44120;SDS011;29783;52.504;13.478;2022-12-08T08:36:36;14.60;;;9.32;;
44120;SDS011;29783;52.504;13.478;2022-12-08T08:39:05;19.58;;;11.18;;
44120;SDS011;29783;52.504;13.478;2022-12-08T08:41:31;25.92;;;10.18;;
44120;SDS011;29783;52.504;13.478;2022-12-08T08:44:02;23.05;;;10.73;;
44120;SDS011;29783;52.504;13.478;2022-12-08T08:46:28;18.95;;;10.65;;
44120;SDS011;29783;52.504;13.478;2022-12-08T08:48:57;15.60;;;10.63;;
44120;SDS011;29783;52.504;13.478;2022-12-08T08:51:23;20.33;;;10.50;;
44120;SDS011;29783;52.504;13.478;2022-12-08T08:53:49;20.02;;;11.35;;
44120;SDS011;29783;52.504;13.478;2022-12-08T08:56:16;16.00;;;10.40;;
44120;SDS011;29783;52.504;13.478;2022-12-08T08:58:49;25.67;;;11.02;;
44120;SDS011;29783;52.504;13.478;2022-12-08T09:01:20;15.50;;;10.88;;
44120;SDS011;29783;52.504;13.478;2022-12-08T09:03:48;20.85;;;11.02;;
44120;SDS011;29783;52.504;13.478;2022-12-08T09:06:17;20.75;;;12.18;;
44120;SDS011;29783;52.504;13.478;2022-12-08T09:08:43;20.15;;;11.38;;
44120;SDS011;29783;52.504;13.478;2022-12-08T09:11:10;15.60;;;10.55;;
44120;SDS011;29783;52.504;13.478;2022-12-08T09:13:36;16.88;;;10.85;;
44120;SDS011;29783;52.504;13.478;2022-12-08T09:16:05;16.65;;;9.32;;
44120;SDS011;29783;52.504;13.478;2022-12-08T09:18:32;18.98;;;10.48;;
44120;SDS011;29783;52.504;13.478;2022-12-08T09:21:05;17.88;;;10.27;;
44120;SDS011;29783;52.504;13.478;2022-12-08T09:23:37;15.82;;;10.38;;
44120;SDS011;29783;52.504;13.478;2022-12-08T09:26:08;23.50;;;10.52;;
44120;SDS011;29783;52.504;13.478;2022-12-08T09:28:40;15.23;;;7.05;;
44120;SDS011;29783;52.504;13.478;2022-12-08T09:31:13;13.18;;;9.07;;
44120;SDS011;29783;52.504;13.478;2022-12-08T09:37:01;21.23;;;9.00;;
44120;SDS011;29783;52.504;13.478;2022-12-08T09:39:27;17.45;;;10.63;;
44120;SDS011;29783;52.504;13.478;2022-12-08T09:41:56;16.35;;;10.25;;
44120;SDS011;29783;52.504;13.478;2022-12-08T09:44:46;15.00;;;10.25;;
44120;SDS011;29783;52.504;13.478;2022-12-08T09:47:28;20.38;;;10.40;;
44120;SDS011;29783;52.504;13.478;2022-12-08T09:50:01;15.07;;;11.70;;
44120;SDS011;29783;52.504;13.478;2022-12-08T10:01:59;17.13;;;12.07;;
44120;SDS011;29783;52.504;13.478;2022-12-08T10:04:38;15.18;;;10.27;;
44120;SDS011;29783;52.504;13.478;2022-12-08T10:07:12;18.90;;;8.88;;
44120;SDS011;29783;52.504;13.478;2022-12-08T10:12:29;18.50;;;10.20;;
44120;SDS011;29783;52.504;13.478;2022-12-08T10:18:34;24.42;;;10.85;;
44120;SDS011;29783;52.504;13.478;2022-12-08T10:21:09;18.98;;;10.05;;
44120;SDS011;29783;52.504;13.478;2022-12-08T10:23:50;15.65;;;9.57;;
44120;SDS011;29783;52.504;13.478;2022-12-08T10:26:23;14.27;;;9.52;;
44120;SDS011;29783;52.504;13.478;2022-12-08T10:28:52;18.08;;;10.43;;
44120;SDS011;29783;52.504;13.478;2022-12-08T10:31:25;14.63;;;9.27;;
44120;SDS011;29783;52.504;13.478;2022-12-08T10:33:55;20.80;;;10.02;;
44120;SDS011;29783;52.504;13.478;2022-12-08T10:36:31;13.27;;;8.77;;
44120;SDS011;29783;52.504;13.478;2022-12-08T10:39:40;17.73;;;9.95;;
44120;SDS011;29783;52.504;13.478;2022-12-08T10:42:25;12.82;;;8.18;;
44120;SDS011;29783;52.504;13.478;2022-12-08T10:47:40;17.08;;;9.50;;
44120;SDS011;29783;52.504;13.478;2022-12-08T10:50:11;13.88;;;9.65;;
44120;SDS011;29783;52.504;13.478;2022-12-08T10:52:42;12.77;;;9.02;;
44120;SDS011;29783;52.504;13.478;2022-12-08T10:55:19;17.00;;;9.27;;
44120;SDS011;29783;52.504;13.478;2022-12-08T10:57:54;15.25;;;8.77;;
44120;SDS011;29783;52.504;13.478;2022-12-08T11:00:25;17.67;;;9.30;;
44120;SDS011;29783;52.504;13.478;2022-12-08T11:05:54;21.70;;;8.70;;
44120;SDS011;29783;52.504;13.478;2022-12-08T11:08:23;11.35;;;8.10;;
44120;SDS011;29783;52.504;13.478;2022-12-08T11:10:56;13.35;;;7.53;;
44120;SDS011;29783;52.504;13.478;2022-12-08T11:13:36;16.50;;;9.25;;
44120;SDS011;29783;52.504;13.478;2022-12-08T12:50:10;11.27;;;6.63;;
44120;SDS011;29783;52.504;13.478;2022-12-08T13:07:03;13.63;;;8.95;;
44120;SDS011;29783;52.504;13.478;2022-12-08T21:21:16;7.95;;;5.72;;
44120;SDS011;29783;52.504;13.478;2022-12-08T23:22:35;13.93;;;9.30;;
